Time;durP1;ratioP1;P1;durP2;ratioP2;P2;SDS_P1;SDS_P2;PMS_P1;PMS_P2;Temp;Humidity;BMP_temperature;BMP_pressure;BME280_temperature;BME280_humidity;BME280_pressure;Samples;Min_cycle;Max_cycle;Signal;HPM_P1;HPM_P2
2022/10/06 00:00:49;;;;;;;4.80;2.88;;;;;;;15.14;88.46;101034.19;5010788;28;20050;-64
2022/10/06 00:03:16;;;;;;;5.97;2.70;;;;;;;15.15;88.48;101025.25;5020427;28;20504;-63
2022/10/06 00:05:43;;;;;;;5.50;2.45;;;;;;;15.16;88.55;101027.78;4996607;28;20057;-63
2022/10/06 00:08:11;;;;;;;6.32;2.65;;;;;;;15.17;88.29;101028.63;4993586;28;20137;-63
2022/10/06 00:10:38;;;;;;;3.38;2.78;;;;;;;15.17;88.35;101036.59;5007589;28;20062;-65
2022/10/06 00:13:07;;;;;;;4.30;2.75;;;;;;;15.19;88.08;101035.53;4997931;28;20042;-63
2022/10/06 00:15:34;;;;;;;4.07;2.90;;;;;;;15.16;88.35;101038.41;5020962;28;20378;-64
2022/10/06 00:18:01;;;;;;;5.38;2.90;;;;;;;15.10;89.21;101036.19;5013511;28;20544;-63
2022/10/06 00:20:28;;;;;;;3.97;2.95;;;;;;;15.07;89.20;101043.53;5014926;28;20177;-63
2022/10/06 00:22:56;;;;;;;7.97;3.17;;;;;;;15.06;90.25;101047.13;4996377;28;20054;-62
2022/10/06 00:25:24;;;;;;;4.22;2.70;;;;;;;15.08;90.03;101045.19;5009419;28;20063;-63
2022/10/06 00:27:51;;;;;;;5.53;2.95;;;;;;;15.13;89.32;101056.31;5015937;28;20054;-64
2022/10/06 00:30:25;;;;;;;7.25;2.78;;;;;;;15.10;89.71;101048.63;5008367;28;20041;-64
2022/10/06 00:33:00;;;;;;;5.60;2.78;;;;;;;15.14;89.33;101050.94;5005492;28;20041;-61
2022/10/06 00:35:32;;;;;;;3.75;2.45;;;;;;;15.18;89.15;101048.91;4991847;28;20046;-64
2022/10/06 00:38:00;;;;;;;4.65;3.00;;;;;;;15.13;90.17;101048.38;5011699;28;20395;-64
2022/10/06 00:40:28;;;;;;;4.35;2.95;;;;;;;15.11;90.68;101052.94;4991468;28;20437;-63
2022/10/06 00:42:58;;;;;;;5.32;2.90;;;;;;;15.10;90.83;101060.06;4990211;28;20706;-63
2022/10/06 00:45:30;;;;;;;6.28;2.45;;;;;;;15.16;91.09;101051.66;4989488;28;20129;-63
2022/10/06 00:48:03;;;;;;;5.25;2.75;;;;;;;15.15;91.59;101065.88;5006543;28;20050;-64
2022/10/06 00:50:30;;;;;;;6.10;2.75;;;;;;;15.28;90.37;101065.88;5004575;28;20050;-64
2022/10/06 00:52:57;;;;;;;4.22;2.95;;;;;;;15.29;90.69;101059.59;5017998;28;20071;-64
2022/10/06 00:55:24;;;;;;;5.53;3.13;;;;;;;15.29;90.70;101072.84;5005123;28;20141;-62
2022/10/06 00:57:52;;;;;;;3.50;2.42;;;;;;;15.36;90.55;101071.47;5006981;28;20399;-65
2022/10/06 01:00:19;;;;;;;5.93;2.42;;;;;;;15.41;89.77;101068.50;5006651;28;20046;-64
2022/10/06 01:02:53;;;;;;;7.28;2.88;;;;;;;15.39;90.44;101070.38;4976647;28;20128;-64
2022/10/06 01:05:32;;;;;;;5.25;2.78;;;;;;;15.47;90.06;101070.69;4982916;28;20470;-64
2022/10/06 01:07:59;;;;;;;5.32;2.50;;;;;;;15.58;89.61;101083.16;4994152;28;20398;-63
2022/10/06 01:10:27;;;;;;;6.03;2.45;;;;;;;15.58;89.38;101094.66;4990582;28;20054;-61
2022/10/06 01:12:55;;;;;;;4.35;2.42;;;;;;;15.65;89.13;101073.84;5007253;28;20042;-64
2022/10/06 01:15:24;;;;;;;6.43;3.15;;;;;;;15.61;89.56;101086.44;5003271;28;20058;-63
2022/10/06 01:17:59;;;;;;;5.45;2.80;;;;;;;15.64;89.39;101091.56;5010031;28;20054;-62
2022/10/06 01:20:28;;;;;;;5.78;2.95;;;;;;;15.65;89.21;101087.97;4997462;28;20236;-64
2022/10/06 01:23:08;;;;;;;4.20;2.58;;;;;;;15.67;89.55;101090.53;5012843;28;20077;-63
2022/10/06 01:25:36;;;;;;;8.88;2.97;;;;;;;15.73;89.27;101086.56;4999481;28;20456;-63
2022/10/06 01:28:05;;;;;;;5.43;2.70;;;;;;;15.69;88.92;101083.28;4998338;28;20042;-62
2022/10/06 01:30:40;;;;;;;5.13;2.50;;;;;;;15.67;89.39;101099.31;5014685;28;20060;-64
2022/10/06 01:33:07;;;;;;;5.03;2.40;;;;;;;15.65;89.40;101092.41;4988723;28;20050;-63
2022/10/06 01:35:34;;;;;;;3.10;2.47;;;;;;;15.65;89.73;101087.97;4993364;28;20111;-63
2022/10/06 01:38:02;;;;;;;3.38;2.20;;;;;;;15.68;89.25;101095.72;5009327;28;20050;-63
2022/10/06 01:40:29;;;;;;;4.75;2.22;;;;;;;15.70;89.35;101092.94;5014034;28;20050;-63
2022/10/06 01:42:56;;;;;;;4.78;2.83;;;;;;;15.72;89.32;101098.16;5019930;28;20045;-63
2022/10/06 01:45:23;;;;;;;5.28;2.78;;;;;;;15.74;88.99;101096.22;4999546;28;20136;-63
2022/10/06 01:47:51;;;;;;;4.30;2.88;;;;;;;15.72;89.02;101103.47;5020038;28;20052;-63
2022/10/06 01:50:19;;;;;;;7.18;3.28;;;;;;;15.67;89.46;101101.97;5012011;28;20053;-63
2022/10/06 01:52:46;;;;;;;5.45;2.50;;;;;;;15.61;90.03;101096.22;5005057;28;20042;-64
2022/10/06 01:55:13;;;;;;;3.25;2.35;;;;;;;15.70;89.07;101096.44;5016251;28;20114;-63
2022/10/06 01:57:41;;;;;;;4.57;2.38;;;;;;;15.67;89.41;101093.19;5014716;28;20052;-64
2022/10/06 02:00:09;;;;;;;6.40;2.83;;;;;;;15.66;89.10;101100.25;4974104;28;20075;-63
2022/10/06 02:02:37;;;;;;;6.82;2.67;;;;;;;15.60;90.30;101100.69;5008818;28;20068;-63
2022/10/06 02:05:04;;;;;;;5.25;2.50;;;;;;;15.56;90.70;101104.50;5002657;28;20116;-63
2022/10/06 02:07:34;;;;;;;9.80;3.60;;;;;;;15.53;90.68;101110.03;5014946;28;20054;-64
2022/10/06 02:10:03;;;;;;;5.10;2.35;;;;;;;15.55;90.67;101101.97;5005459;28;20049;-64
2022/10/06 02:12:30;;;;;;;6.75;2.67;;;;;;;15.55;90.32;101097.53;4997517;28;20215;-63
2022/10/06 02:14:58;;;;;;;5.00;2.58;;;;;;;15.55;90.44;101097.53;5012390;28;20046;-62
2022/10/06 02:17:25;;;;;;;3.65;2.70;;;;;;;15.50;91.61;101112.94;5013636;28;20145;-63
2022/10/06 02:19:52;;;;;;;3.40;2.20;;;;;;;15.49;91.07;101103.28;5006867;28;20054;-63
2022/10/06 02:22:19;;;;;;;3.70;2.90;;;;;;;15.50;91.15;101117.38;5021674;28;20045;-63
2022/10/06 02:24:47;;;;;;;4.97;2.60;;;;;;;15.52;90.69;101108.34;5007034;28;20190;-63
2022/10/06 02:27:14;;;;;;;4.60;2.40;;;;;;;15.53;90.70;101118.00;5010280;28;20042;-64
2022/10/06 02:29:41;;;;;;;4.97;2.75;;;;;;;15.55;90.70;101116.09;5002363;28;20628;-63
2022/10/06 02:32:09;;;;;;;4.10;2.72;;;;;;;15.50;91.21;101125.34;5008788;28;20057;-63
2022/10/06 02:34:36;;;;;;;2.78;2.40;;;;;;;15.49;91.19;101124.50;5002827;28;20485;-63
2022/10/06 02:37:04;;;;;;;4.20;2.60;;;;;;;15.43;91.71;101123.13;5011822;28;20073;-63
2022/10/06 02:39:31;;;;;;;3.40;2.38;;;;;;;15.41;92.16;101121.53;5008312;28;20065;-62
2022/10/06 02:41:58;;;;;;;7.07;2.70;;;;;;;15.42;91.79;101126.75;5015055;28;20494;-63
2022/10/06 02:44:25;;;;;;;5.00;2.70;;;;;;;15.43;92.15;101135.53;5012830;28;20082;-62
2022/10/06 02:46:52;;;;;;;4.50;2.70;;;;;;;15.40;92.54;101136.63;5014284;28;20057;-62
2022/10/06 02:49:20;;;;;;;6.45;2.83;;;;;;;15.35;93.13;101133.41;5003497;28;20376;-62
2022/10/06 02:51:47;;;;;;;5.53;2.83;;;;;;;15.39;92.43;101144.66;4998051;28;20095;-62
2022/10/06 02:54:14;;;;;;;6.75;2.60;;;;;;;15.38;92.39;101141.16;5002525;28;20352;-62
2022/10/06 02:56:41;;;;;;;4.22;2.78;;;;;;;15.40;92.28;101146.34;5016138;28;20502;-62
2022/10/06 02:59:09;;;;;;;3.35;2.58;;;;;;;15.45;91.96;101138.94;5006662;28;20050;-62
2022/10/06 03:01:36;;;;;;;4.93;2.60;;;;;;;15.50;91.82;101149.22;5008870;28;20053;-62
2022/10/06 03:04:03;;;;;;;7.10;3.70;;;;;;;15.46;92.66;101145.94;5007464;28;20140;-62
2022/10/06 03:06:30;;;;;;;3.53;2.58;;;;;;;15.44;92.71;101154.03;5009978;28;20058;-62
2022/10/06 03:08:58;;;;;;;7.38;2.92;;;;;;;15.40;93.37;101152.53;5007611;28;20046;-63
2022/10/06 03:11:28;;;;;;;4.30;2.35;;;;;;;15.44;92.63;101161.97;5005505;28;20057;-62
2022/10/06 03:13:56;;;;;;;4.22;2.50;;;;;;;15.44;93.17;101171.72;5004448;28;20049;-63
2022/10/06 03:16:28;;;;;;;5.65;3.03;;;;;;;15.44;92.99;101167.28;5007513;28;20063;-64
2022/10/06 03:18:56;;;;;;;7.30;3.28;;;;;;;15.47;92.82;101170.66;5002987;28;20553;-64
2022/10/06 03:21:26;;;;;;;4.53;3.17;;;;;;;15.44;93.22;101169.06;5008160;28;20059;-64
2022/10/06 03:23:53;;;;;;;7.25;3.00;;;;;;;15.47;93.44;101183.94;5006651;28;20070;-65
2022/10/06 03:26:23;;;;;;;5.65;2.50;;;;;;;15.43;93.65;101186.78;5010622;28;20512;-64
2022/10/06 03:28:50;;;;;;;3.20;2.53;;;;;;;15.50;93.20;101189.88;5012306;28;20046;-64
2022/10/06 03:31:17;;;;;;;7.82;2.92;;;;;;;15.49;93.21;101193.50;5008380;28;20066;-64
2022/10/06 03:33:44;;;;;;;6.90;3.17;;;;;;;15.46;93.84;101204.31;5008648;28;20398;-64
2022/10/06 03:36:14;;;;;;;3.95;3.10;;;;;;;15.58;92.88;101203.47;5012218;28;20034;-63
2022/10/06 03:38:41;;;;;;;3.30;2.53;;;;;;;15.52;93.15;101203.88;5006388;28;20061;-64
2022/10/06 03:41:13;;;;;;;3.03;2.72;;;;;;;15.55;92.80;101218.75;5009808;28;20366;-64
2022/10/06 03:43:42;;;;;;;7.90;2.35;;;;;;;15.52;93.33;101229.56;5003207;28;20379;-65
2022/10/06 03:46:11;;;;;;;5.20;2.40;;;;;;;15.54;93.18;101243.59;5017023;28;20054;-64
2022/10/06 03:48:39;;;;;;;3.95;2.67;;;;;;;15.54;93.84;101243.59;5004270;28;20058;-64
2022/10/06 03:51:12;;;;;;;4.30;2.25;;;;;;;15.61;94.17;101250.16;5007652;28;20064;-64
2022/10/06 03:53:39;;;;;;;3.65;2.40;;;;;;;15.72;93.92;101268.03;5011627;28;20061;-64
2022/10/06 03:56:30;;;;;;;3.83;2.65;;;;;;;15.69;94.66;101267.28;5018236;28;20061;-65
2022/10/06 03:58:59;;;;;;;4.85;2.45;;;;;;;15.75;94.39;101273.94;4986706;28;20045;-65
2022/10/06 04:01:28;;;;;;;3.83;1.85;;;;;;;15.75;94.40;101273.09;5002495;28;20062;-64
2022/10/06 04:03:57;;;;;;;8.77;2.25;;;;;;;15.75;94.65;101278.41;5004371;28;20056;-64
2022/10/06 04:06:27;;;;;;;6.50;2.30;;;;;;;15.76;94.50;101286.28;5005424;28;20050;-64
2022/10/06 04:08:54;;;;;;;4.68;1.90;;;;;;;15.92;93.23;101294.84;4986925;28;20046;-63
2022/10/06 04:11:22;;;;;;;4.32;2.10;;;;;;;15.83;93.68;101299.97;5004148;28;20391;-63
2022/10/06 04:13:57;;;;;;;5.95;2.55;;;;;;;15.80;94.16;101295.72;5005779;28;20382;-64
2022/10/06 04:16:33;;;;;;;2.72;1.92;;;;;;;15.72;94.29;101311.34;4996344;28;20050;-64
2022/10/06 04:19:04;;;;;;;3.42;2.00;;;;;;;15.79;93.98;101312.59;5000597;28;20050;-64
2022/10/06 04:21:33;;;;;;;5.22;2.20;;;;;;;15.76;94.23;101333.19;5005157;28;20057;-64
2022/10/06 04:24:00;;;;;;;2.65;1.63;;;;;;;15.71;93.73;101325.56;4999354;28;20042;-64
2022/10/06 04:26:34;;;;;;;4.35;1.77;;;;;;;15.76;92.66;101336.72;5000197;28;20045;-65
2022/10/06 04:29:01;;;;;;;2.05;1.60;;;;;;;15.88;90.54;101325.22;5004489;28;20052;-64
2022/10/06 04:31:31;;;;;;;1.75;1.23;;;;;;;15.83;89.70;101326.53;5008722;28;20058;-64
2022/10/06 04:34:00;;;;;;;1.98;1.50;;;;;;;15.84;87.41;101334.38;5006186;28;20054;-64
2022/10/06 04:36:32;;;;;;;4.80;1.70;;;;;;;15.78;87.36;101334.81;5004783;28;20058;-63
2022/10/06 04:39:01;;;;;;;4.00;1.30;;;;;;;15.85;85.40;101329.91;5003136;28;20058;-64
2022/10/06 04:41:35;;;;;;;3.95;1.48;;;;;;;15.80;81.08;101335.53;5009039;28;20729;-64
2022/10/06 04:44:03;;;;;;;2.80;0.90;;;;;;;15.76;75.43;101338.50;5002350;28;20427;-65
2022/10/06 04:46:31;;;;;;;4.57;1.13;;;;;;;15.81;75.52;101336.41;4994050;28;20056;-65
2022/10/06 04:49:14;;;;;;;3.42;1.15;;;;;;;15.74;75.50;101359.00;5004751;28;20053;-65
2022/10/06 04:51:48;;;;;;;4.97;1.23;;;;;;;15.85;75.45;101367.06;5006279;28;20053;-63
2022/10/06 04:54:16;;;;;;;3.10;1.10;;;;;;;15.79;76.08;101370.16;5005813;28;20529;-63
2022/10/06 04:56:43;;;;;;;1.70;0.90;;;;;;;15.75;75.07;101373.97;5004872;28;20049;-63
2022/10/06 04:59:10;;;;;;;2.75;0.80;;;;;;;15.78;75.47;101364.00;5008877;28;20064;-65
2022/10/06 05:01:37;;;;;;;4.78;1.02;;;;;;;15.73;75.00;101371.44;5015163;28;20112;-64
2022/10/06 05:04:05;;;;;;;1.45;0.80;;;;;;;15.65;75.36;101379.91;5004921;28;20058;-63
2022/10/06 05:06:37;;;;;;;2.13;0.90;;;;;;;15.60;75.04;101382.00;5005112;28;20049;-63
2022/10/06 05:09:06;;;;;;;1.42;0.70;;;;;;;15.57;75.45;101384.00;4991476;28;20045;-63
2022/10/06 05:11:34;;;;;;;4.40;0.80;;;;;;;15.59;75.53;101395.41;5010682;28;20049;-64
2022/10/06 05:14:01;;;;;;;2.08;0.80;;;;;;;15.56;74.61;101406.22;5001502;28;20083;-64
2022/10/06 05:16:29;;;;;;;3.42;1.00;;;;;;;15.55;75.15;101409.81;5003826;28;20086;-65
2022/10/06 05:18:57;;;;;;;2.33;0.82;;;;;;;15.63;74.79;101418.97;5000649;28;20058;-64
2022/10/06 05:21:26;;;;;;;4.78;0.70;;;;;;;15.63;73.83;101423.44;4998782;28;20049;-63
2022/10/06 05:23:53;;;;;;;1.65;0.90;;;;;;;15.63;73.60;101424.28;5011550;28;20055;-63
2022/10/06 05:26:23;;;;;;;1.70;0.77;;;;;;;15.52;72.63;101434.75;5005463;28;20042;-63
2022/10/06 05:28:50;;;;;;;4.68;0.90;;;;;;;15.52;72.58;101433.91;5005638;28;20054;-64
2022/10/06 05:31:19;;;;;;;3.55;0.85;;;;;;;15.50;72.87;101449.09;5005199;28;20060;-64
2022/10/06 05:33:48;;;;;;;1.50;0.70;;;;;;;15.43;71.25;101451.28;5007436;28;20058;-64
2022/10/06 05:36:17;;;;;;;5.43;0.73;;;;;;;15.49;70.43;101458.84;5001278;28;20049;-63
2022/10/06 05:38:44;;;;;;;2.90;0.65;;;;;;;15.40;69.80;101468.28;5009809;28;20057;-63
2022/10/06 05:41:14;;;;;;;3.17;1.08;;;;;;;15.34;70.40;101486.38;5000806;28;20149;-63
2022/10/06 05:43:41;;;;;;;3.58;0.98;;;;;;;15.26;70.50;101480.72;5003842;28;20075;-63
2022/10/06 05:46:16;;;;;;;3.88;1.08;;;;;;;15.27;70.92;101499.19;5004164;28;20042;-64
2022/10/06 05:48:45;;;;;;;5.07;0.73;;;;;;;15.23;71.21;101494.19;4999435;28;20149;-64
2022/10/06 05:51:13;;;;;;;6.95;1.10;;;;;;;15.19;71.57;101512.09;5006095;28;20048;-64
2022/10/06 05:53:40;;;;;;;10.20;1.30;;;;;;;15.24;71.80;101515.31;5002768;28;20049;-64
2022/10/06 05:56:11;;;;;;;4.15;0.90;;;;;;;15.22;71.75;101521.66;5020350;22;20045;-64
2022/10/06 05:58:39;;;;;;;4.10;1.08;;;;;;;15.23;71.68;101531.34;5003289;28;20053;-64
2022/10/06 06:01:26;;;;;;;5.78;0.68;;;;;;;15.09;71.67;101534.88;5010089;28;20058;-64
2022/10/06 06:03:59;;;;;;;2.88;0.90;;;;;;;15.01;71.81;101553.91;5004766;28;20049;-64
2022/10/06 06:06:30;;;;;;;2.28;0.77;;;;;;;14.95;71.78;101556.94;5004279;28;20061;-64
2022/10/06 06:09:08;;;;;;;6.25;1.10;;;;;;;14.97;72.13;101563.00;4993636;28;20153;-64
2022/10/06 06:11:38;;;;;;;8.65;1.27;;;;;;;14.92;72.61;101567.72;5010418;28;20054;-64
2022/10/06 06:14:10;;;;;;;3.58;0.63;;;;;;;14.97;71.80;101583.34;5006512;28;20502;-65
2022/10/06 06:16:38;;;;;;;3.13;0.90;;;;;;;14.86;72.03;101581.34;5008430;28;20050;-65
2022/10/06 06:19:07;;;;;;;4.93;0.77;;;;;;;14.77;72.26;101596.06;5009799;28;20733;-65
2022/10/06 06:21:34;;;;;;;4.55;1.00;;;;;;;14.83;72.23;101605.41;5005398;28;20522;-65
2022/10/06 06:24:04;;;;;;;6.53;1.08;;;;;;;14.84;72.19;101615.91;5010022;28;20536;-65
2022/10/06 06:26:35;;;;;;;3.42;0.60;;;;;;;14.80;72.24;101625.00;5009826;28;20067;-65
2022/10/06 06:29:04;;;;;;;3.55;0.60;;;;;;;14.77;72.18;101626.97;5000392;28;20050;-65
2022/10/06 06:31:38;;;;;;;13.27;1.00;;;;;;;14.75;72.72;101618.28;4991844;28;20062;-65
2022/10/06 06:34:06;;;;;;;7.43;0.93;;;;;;;14.70;72.74;101647.72;5009954;28;20129;-65
2022/10/06 06:36:39;;;;;;;4.15;0.70;;;;;;;14.63;72.94;101641.94;5006393;28;20053;-65
2022/10/06 06:39:11;;;;;;;1.70;0.60;;;;;;;14.58;73.23;101646.63;5009331;28;20066;-65
2022/10/06 06:41:40;;;;;;;7.38;0.90;;;;;;;14.59;73.55;101652.78;4993039;28;20552;-65
2022/10/06 06:44:10;;;;;;;2.58;0.95;;;;;;;14.50;73.55;101651.56;5009161;28;20707;-64
2022/10/06 06:46:38;;;;;;;4.68;0.80;;;;;;;14.52;74.11;101673.50;5005523;28;20530;-65
2022/10/06 06:49:05;;;;;;;3.63;1.20;;;;;;;14.64;73.63;101671.94;5009722;28;20061;-55
2022/10/06 06:51:34;;;;;;;4.97;1.23;;;;;;;14.66;73.61;101681.50;5009328;28;20478;-53
2022/10/06 06:54:02;;;;;;;9.82;0.90;;;;;;;14.63;74.65;101678.16;5003528;28;20046;-56
2022/10/06 06:56:37;;;;;;;4.30;0.88;;;;;;;14.75;74.16;101706.59;5006728;28;20053;-51
2022/10/06 06:59:11;;;;;;;3.40;0.70;;;;;;;14.75;74.43;101700.44;5010012;28;20057;-51
2022/10/06 07:01:44;;;;;;;4.35;1.30;;;;;;;14.84;74.38;101694.59;5008645;28;20041;-51
2022/10/06 07:04:13;;;;;;;3.30;0.63;;;;;;;14.78;74.28;101700.28;5005014;28;20042;-53
2022/10/06 07:06:41;;;;;;;5.60;1.17;;;;;;;14.77;74.71;101711.81;5007512;28;20552;-52
2022/10/06 07:09:11;;;;;;;3.22;1.05;;;;;;;14.88;74.66;101712.88;5009484;28;20049;-54
2022/10/06 07:11:39;;;;;;;5.90;1.20;;;;;;;14.91;74.49;101714.50;5002644;28;20069;-51
2022/10/06 07:14:08;;;;;;;6.25;1.10;;;;;;;14.80;74.99;101724.88;5008203;28;20057;-65
2022/10/06 07:25:10;;;;;;;;;;;;;;;14.75;75.54;101742.84;5009296;28;20061;-64
2022/10/06 07:27:41;;;;;;;6.78;0.80;;;;;;;14.68;76.26;101747.69;5008742;28;19928;-64
2022/10/06 07:30:19;;;;;;;2.85;1.23;;;;;;;14.70;76.13;101759.03;4993803;28;20054;-65
2022/10/06 07:32:49;;;;;;;9.82;1.35;;;;;;;14.73;75.79;101750.91;4976428;28;20046;-64
2022/10/06 07:35:19;;;;;;;5.75;1.00;;;;;;;14.75;76.06;101775.53;4988202;28;20038;-64
2022/10/06 07:37:47;;;;;;;5.63;1.00;;;;;;;14.78;75.60;101764.75;4991004;28;20168;-64
2022/10/06 07:40:14;;;;;;;5.88;1.17;;;;;;;14.81;75.84;101780.44;4991289;28;20053;-64
2022/10/06 07:42:47;;;;;;;6.70;1.30;;;;;;;14.82;75.27;101786.63;5006587;28;20477;-64
2022/10/06 07:45:37;;;;;;;5.82;1.02;;;;;;;14.79;75.41;101781.50;5001281;28;20406;-64
2022/10/06 07:48:13;;;;;;;3.47;1.42;;;;;;;14.90;75.06;101787.00;5006407;28;20141;-64
2022/10/06 07:50:41;;;;;;;;;;;;;;;14.82;75.73;101784.84;4990197;28;20061;-64
2022/10/06 07:53:08;;;;;;;4.93;1.00;;;;;;;14.92;75.47;101793.09;5007213;28;19932;-64
2022/10/06 07:55:35;;;;;;;4.63;1.35;;;;;;;14.88;74.77;101797.72;5004834;28;20050;-64
2022/10/06 07:58:03;;;;;;;4.68;1.17;;;;;;;14.99;74.97;101781.16;5008615;28;20042;-64
2022/10/06 08:00:31;;;;;;;15.40;1.30;;;;;;;14.93;75.34;101806.25;5012144;28;20502;-64
2022/10/06 08:03:03;;;;;;;5.90;1.20;;;;;;;14.98;74.03;101803.34;5010137;28;20101;-64
2022/10/06 08:05:31;;;;;;;6.65;0.98;;;;;;;15.03;73.30;101808.38;5009017;28;20058;-64
2022/10/06 08:07:58;;;;;;;6.65;0.88;;;;;;;15.01;73.21;101819.06;5007587;28;20058;-64
2022/10/06 08:10:25;;;;;;;7.93;1.42;;;;;;;15.06;73.11;101821.47;5012608;28;20060;-64
2022/10/06 08:12:52;;;;;;;4.10;0.98;;;;;;;15.03;72.26;101837.53;5013498;28;20073;-64
2022/10/06 08:15:19;;;;;;;6.55;1.20;;;;;;;15.03;72.07;101854.31;5009861;28;20068;-65
2022/10/06 08:17:46;;;;;;;6.30;1.30;;;;;;;15.13;71.30;101834.28;5012980;28;20395;-65
2022/10/06 08:20:13;;;;;;;7.68;1.38;;;;;;;15.00;70.86;101841.25;5013628;28;20042;-64
2022/10/06 08:22:40;;;;;;;4.55;1.05;;;;;;;14.95;71.30;101840.66;4989072;28;20061;-67
2022/10/06 08:25:08;;;;;;;8.88;2.08;;;;;;;14.96;69.48;101866.22;4995172;28;20046;-65
2022/10/06 08:27:37;;;;;;;17.40;2.08;;;;;;;15.00;69.35;101853.66;5012305;28;20080;-64
2022/10/06 08:30:05;;;;;;;10.13;2.10;;;;;;;15.01;68.44;101864.16;5009696;28;20056;-65
2022/10/06 08:32:33;;;;;;;5.75;1.35;;;;;;;14.95;67.13;101859.22;4991505;28;20061;-65
2022/10/06 08:35:00;;;;;;;11.50;1.63;;;;;;;15.01;67.33;101866.81;5010709;28;20061;-65
2022/10/06 08:37:27;;;;;;;10.13;1.45;;;;;;;15.07;67.05;101866.44;5010522;28;20072;-65
2022/10/06 08:39:55;;;;;;;9.38;1.58;;;;;;;15.16;64.08;101880.97;5011181;28;20396;-65
2022/10/06 08:42:37;;;;;;;12.70;1.23;;;;;;;15.06;64.66;101878.00;5011938;28;20114;-64
2022/10/06 08:45:22;;;;;;;24.05;2.20;;;;;;;15.09;64.33;101900.84;5006095;28;20064;-65
2022/10/06 08:47:56;;;;;;;9.07;1.60;;;;;;;14.97;63.47;101893.59;5009508;28;20054;-65
2022/10/06 08:50:26;;;;;;;10.57;1.98;;;;;;;15.04;63.88;101897.59;4995544;28;20534;-65
2022/10/06 08:53:14;;;;;;;14.75;2.17;;;;;;;14.97;62.99;101891.78;4991652;28;20089;-65
2022/10/06 08:55:59;;;;;;;8.48;1.20;;;;;;;14.91;63.28;101906.25;5006708;28;20529;-65
2022/10/06 08:58:57;;;;;;;10.93;1.58;;;;;;;15.01;63.36;101890.69;4995198;28;20062;-64
2022/10/06 09:01:46;;;;;;;10.80;2.30;;;;;;;15.15;64.20;101909.31;4975075;28;20506;-64
2022/10/06 09:04:24;;;;;;;17.85;2.03;;;;;;;15.33;63.00;101906.53;4992519;28;20496;-65
2022/10/06 09:07:03;;;;;;;13.85;1.67;;;;;;;15.32;63.50;101910.13;5007217;28;20298;-65
2022/10/06 09:10:05;;;;;;;10.30;1.55;;;;;;;15.42;62.98;101917.44;4994833;28;20054;-65
2022/10/06 09:12:48;;;;;;;12.02;1.83;;;;;;;15.35;63.02;101897.50;5006202;28;20049;-65
2022/10/06 09:15:32;;;;;;;8.63;1.80;;;;;;;15.49;62.73;101917.09;4993385;28;20133;-65
2022/10/06 09:18:02;;;;;;;8.25;1.70;;;;;;;15.48;60.89;101940.13;5011235;28;20860;-65
2022/10/06 09:20:33;;;;;;;10.35;1.50;;;;;;;15.58;60.78;101920.06;5010559;28;20062;-65
2022/10/06 09:23:03;;;;;;;12.43;2.00;;;;;;;15.49;60.83;101940.97;5011198;28;20054;-65
2022/10/06 09:25:30;;;;;;;9.80;2.22;;;;;;;15.54;61.34;101930.97;5001066;28;20072;-65
2022/10/06 09:27:59;;;;;;;9.02;1.90;;;;;;;15.46;60.48;101931.41;4993885;28;20054;-65
2022/10/06 09:30:27;;;;;;;8.82;2.05;;;;;;;15.48;60.48;101939.25;5010803;28;20062;-64
2022/10/06 09:32:58;;;;;;;12.40;2.33;;;;;;;15.51;60.89;101937.28;5008911;28;20049;-65
2022/10/06 09:35:30;;;;;;;7.45;1.63;;;;;;;15.53;60.28;101938.03;5009922;28;20050;-65
2022/10/06 09:38:03;;;;;;;11.80;1.70;;;;;;;15.61;60.79;101941.09;4991516;28;20054;-65
2022/10/06 09:40:40;;;;;;;10.70;1.95;;;;;;;15.72;60.63;101942.31;5000135;28;20069;-64
2022/10/06 09:43:26;;;;;;;9.52;1.70;;;;;;;15.74;60.50;101948.38;4971702;28;20054;-63
2022/10/06 09:45:54;;;;;;;17.27;2.30;;;;;;;15.76;59.98;101954.44;4984999;28;20049;-64
2022/10/06 09:48:23;;;;;;;12.63;2.08;;;;;;;15.78;58.96;101973.81;4993655;28;20481;-64
2022/10/06 09:51:14;;;;;;;11.48;2.00;;;;;;;15.69;57.55;101965.44;5008956;28;20451;-65
2022/10/06 09:53:42;;;;;;;12.00;1.60;;;;;;;15.62;58.54;101982.63;5009046;28;20118;-65
2022/10/06 09:56:13;;;;;;;16.02;1.95;;;;;;;15.58;57.72;101972.28;5007962;28;20064;-64
2022/10/06 09:58:52;;;;;;;8.63;1.70;;;;;;;15.67;57.30;101967.34;4993197;28;20158;-64
2022/10/06 10:01:23;;;;;;;14.90;2.10;;;;;;;15.62;57.38;101972.00;5007739;28;20058;-64
2022/10/06 10:03:53;;;;;;;14.90;1.98;;;;;;;15.64;56.28;101970.16;4992244;28;20053;-64
2022/10/06 10:06:40;;;;;;;12.20;2.63;;;;;;;15.61;54.82;101982.72;4996430;28;20050;-63
2022/10/06 10:09:18;;;;;;;10.18;1.45;;;;;;;15.64;55.39;101977.28;5006533;28;20049;-64
2022/10/06 10:14:55;;;;;;;9.38;1.83;;;;;;;15.86;54.75;101982.19;5006884;28;20058;-64
2022/10/06 10:17:32;;;;;;;13.40;1.50;;;;;;;15.98;54.75;101986.75;5005575;28;20053;-64
2022/10/06 10:20:00;;;;;;;10.05;1.60;;;;;;;15.96;55.18;101993.97;4988584;28;20053;-54
2022/10/06 10:22:39;;;;;;;6.88;1.70;;;;;;;16.12;55.79;101981.47;5010532;28;20061;-56
2022/10/06 10:25:37;;;;;;;9.60;1.55;;;;;;;16.29;55.99;101992.84;4986488;28;20046;-54
2022/10/06 10:28:18;;;;;;;11.60;1.85;;;;;;;16.33;54.75;101987.25;5003397;28;20399;-55
2022/10/06 10:31:31;;;;;;;10.80;1.73;;;;;;;16.37;54.35;101988.78;5006769;28;20042;-56
2022/10/06 10:34:06;;;;;;;6.25;1.40;;;;;;;16.48;55.10;101985.47;4958497;28;20043;-59
2022/10/06 10:36:52;;;;;;;8.43;1.45;;;;;;;16.62;54.32;101993.44;4958211;28;20193;-59
2022/10/06 10:39:30;;;;;;;4.63;1.30;;;;;;;16.79;54.24;101996.84;4972967;28;20506;-60
2022/10/06 10:42:01;;;;;;;10.70;1.60;;;;;;;16.93;52.81;101997.72;5004128;28;20399;-61
2022/10/06 10:44:33;;;;;;;8.30;1.70;;;;;;;16.83;51.50;102017.00;4991296;28;20092;-54
2022/10/06 10:47:16;;;;;;;6.25;1.30;;;;;;;16.73;51.54;101995.44;4991067;28;20044;-54
2022/10/06 10:49:49;;;;;;;8.65;1.48;;;;;;;16.96;51.91;102024.09;5004186;28;20125;-56
2022/10/06 10:52:20;;;;;;;9.20;2.22;;;;;;;17.03;51.23;102008.63;4990225;28;20046;-56
2022/10/06 10:54:47;;;;;;;6.38;1.63;;;;;;;17.07;50.58;102018.13;4993130;28;20410;-54
2022/10/06 10:57:16;;;;;;;10.38;1.58;;;;;;;17.26;50.21;102020.44;5005034;28;20321;-55
2022/10/06 10:59:56;;;;;;;8.70;1.95;;;;;;;17.17;50.29;102013.91;4989695;28;20533;-55
2022/10/06 11:02:23;;;;;;;10.77;1.48;;;;;;;17.18;49.73;102023.59;5003473;28;20060;-53
2022/10/06 11:05:09;;;;;;;6.03;1.25;;;;;;;17.11;49.73;102032.94;5007608;28;20053;-55
2022/10/06 11:07:45;;;;;;;6.63;1.13;;;;;;;17.18;50.63;102023.59;4989224;28;20054;-53
2022/10/06 11:10:25;;;;;;;8.57;1.83;;;;;;;17.43;49.73;102017.53;4988403;28;20050;-55
2022/10/06 11:13:27;;;;;;;9.77;1.40;;;;;;;17.43;49.83;102022.00;5005835;28;20057;-53
2022/10/06 11:16:35;;;;;;;5.22;1.33;;;;;;;17.49;48.43;102040.22;4984211;28;20058;-56
2022/10/06 11:19:13;;;;;;;14.23;1.75;;;;;;;17.66;49.25;102013.34;5001723;28;20057;-65
2022/10/06 11:21:47;;;;;;;7.80;1.20;;;;;;;17.86;48.88;102017.34;4989990;28;20061;-65
2022/10/06 11:24:15;;;;;;;5.93;1.20;;;;;;;17.99;48.18;102008.53;4974337;28;20057;-66
2022/10/06 11:27:21;;;;;;;6.15;1.40;;;;;;;18.21;48.75;102035.44;4989317;28;20057;-65
2022/10/06 11:30:13;;;;;;;9.13;1.85;;;;;;;18.31;47.52;102033.81;4974061;28;20060;-65
2022/10/06 11:33:03;;;;;;;5.05;1.17;;;;;;;18.19;47.48;102042.66;5009864;28;20387;-65
2022/10/06 11:35:39;;;;;;;5.15;1.42;;;;;;;17.86;48.36;102037.81;4986022;28;20060;-64
2022/10/06 11:38:06;;;;;;;6.43;1.27;;;;;;;17.79;48.84;102044.53;4991717;28;20058;-64
2022/10/06 11:40:47;;;;;;;8.65;1.27;;;;;;;17.72;49.24;102041.38;5009466;28;20529;-65
2022/10/06 11:43:33;;;;;;;12.70;1.77;;;;;;;17.46;50.02;102056.41;5005742;28;20054;-64
2022/10/06 11:46:15;;;;;;;8.63;1.45;;;;;;;17.76;49.95;102047.38;5001388;28;20058;-65
2022/10/06 11:48:43;;;;;;;5.85;1.50;;;;;;;18.14;49.72;102047.44;4992069;28;20085;-65
2022/10/06 11:51:20;;;;;;;6.82;1.80;;;;;;;18.64;48.58;102043.97;5008702;28;20069;-65
2022/10/06 11:53:47;;;;;;;6.38;1.48;;;;;;;19.10;48.20;102032.69;5010170;28;20061;-65
2022/10/06 11:56:14;;;;;;;9.45;1.15;;;;;;;19.29;44.78;102060.72;5002102;28;20065;-64